createdAt,value
2022-12-06T00:02:13.168Z,3.30
2022-12-06T00:04:39.947Z,3.30
2022-12-06T00:07:06.853Z,3.30
2022-12-06T00:09:33.772Z,3.30
2022-12-06T00:12:00.563Z,3.20
2022-12-06T00:14:28.519Z,3.20
2022-12-06T00:16:55.453Z,3.10
2022-12-06T00:19:23.917Z,3.00
2022-12-06T00:21:50.764Z,3.00
2022-12-06T00:24:22.330Z,3.10
2022-12-06T00:26:50.499Z,3.10
2022-12-06T00:29:23.085Z,2.80
2022-12-06T00:31:50.370Z,2.80
2022-12-06T00:34:17.415Z,2.90
2022-12-06T00:36:44.838Z,2.90
2022-12-06T00:39:14.406Z,2.10
2022-12-06T00:41:41.735Z,2.20
2022-12-06T00:44:09.021Z,2.40
2022-12-06T00:46:36.599Z,2.30
2022-12-06T00:49:05.352Z,2.30
2022-12-06T00:51:33.671Z,2.40
2022-12-06T00:54:00.526Z,1.80
2022-12-06T00:56:27.424Z,1.80
2022-12-06T00:58:55.010Z,2.00
2022-12-06T01:01:23.117Z,2.00
2022-12-06T01:03:52.518Z,1.90
2022-12-06T01:06:28.030Z,1.50
2022-12-06T01:08:56.483Z,1.50
2022-12-06T01:11:24.021Z,1.60
2022-12-06T01:13:51.279Z,1.70
2022-12-06T01:16:24.560Z,1.80
2022-12-06T01:18:57.334Z,1.80
2022-12-06T01:21:25.506Z,1.60
2022-12-06T01:23:54.521Z,1.40
2022-12-06T01:26:24.729Z,1.60
2022-12-06T01:28:51.821Z,1.70
2022-12-06T01:31:19.167Z,1.40
2022-12-06T01:33:46.600Z,1.30
2022-12-06T01:36:18.471Z,1.30
2022-12-06T01:38:50.037Z,1.40
2022-12-06T01:41:17.259Z,1.60
2022-12-06T01:43:44.566Z,1.80
2022-12-06T01:46:20.294Z,1.90
2022-12-06T01:48:50.551Z,1.90
2022-12-06T01:51:17.850Z,1.90
2022-12-06T01:53:47.099Z,1.90
2022-12-06T01:56:14.160Z,2.00
2022-12-06T01:58:43.610Z,1.80
2022-12-06T02:01:11.275Z,1.90
2022-12-06T02:03:38.452Z,1.90
2022-12-06T02:06:07.574Z,1.80
2022-12-06T02:08:35.630Z,1.70
2022-12-06T02:11:03.662Z,1.50
2022-12-06T02:13:32.329Z,1.50
2022-12-06T02:15:59.070Z,1.40
2022-12-06T02:18:31.854Z,1.50
2022-12-06T02:21:22.623Z,1.40
2022-12-06T02:24:27.571Z,1.30
2022-12-06T02:27:20.161Z,1.10
2022-12-06T02:30:19.052Z,1.00
2022-12-06T02:32:55.255Z,1.10
2022-12-06T02:35:33.871Z,1.00
2022-12-06T02:38:29.130Z,1.10
2022-12-06T02:41:00.423Z,0.70
2022-12-06T02:43:42.471Z,0.90
2022-12-06T02:46:11.153Z,1.00
2022-12-06T02:48:39.195Z,1.00
2022-12-06T02:51:13.458Z,1.10
2022-12-06T02:53:45.813Z,1.10
2022-12-06T02:56:15.479Z,0.80
2022-12-06T02:58:42.542Z,0.60
2022-12-06T03:01:26.960Z,0.80
2022-12-06T03:04:15.061Z,0.80
2022-12-06T03:07:12.434Z,0.90
2022-12-06T03:10:00.646Z,1.00
2022-12-06T03:12:33.449Z,1.10
2022-12-06T03:15:14.899Z,1.10
2022-12-06T03:17:50.477Z,1.00
2022-12-06T03:20:43.235Z,1.20
2022-12-06T03:23:49.169Z,1.30
2022-12-06T03:26:21.192Z,1.40
2022-12-06T03:28:50.750Z,1.50
2022-12-06T03:31:17.548Z,1.30
2022-12-06T03:33:52.843Z,1.20
2022-12-06T03:36:21.094Z,1.20
2022-12-06T03:38:56.642Z,1.20
2022-12-06T03:41:27.307Z,1.30
2022-12-06T03:43:54.363Z,1.40
2022-12-06T03:46:27.982Z,1.60
2022-12-06T03:49:02.707Z,1.70
2022-12-06T03:51:32.376Z,1.50
2022-12-06T03:54:02.274Z,1.40
2022-12-06T03:56:29.268Z,1.60
2022-12-06T03:58:56.054Z,1.70
2022-12-06T04:01:23.014Z,1.70
2022-12-06T04:03:50.214Z,1.70
2022-12-06T04:06:17.105Z,1.50
2022-12-06T04:08:43.889Z,1.60
2022-12-06T04:11:10.740Z,1.80
2022-12-06T04:13:38.190Z,1.90
2022-12-06T04:16:25.224Z,2.00
2022-12-06T04:18:52.127Z,2.00
2022-12-06T04:21:33.802Z,2.00
2022-12-06T04:24:02.604Z,2.00
2022-12-06T04:26:29.361Z,1.90
2022-12-06T04:29:15.014Z,2.00
2022-12-06T04:32:00.362Z,2.10
2022-12-06T04:34:45.690Z,2.00
2022-12-06T04:37:30.834Z,2.10
2022-12-06T04:39:57.894Z,2.20
2022-12-06T04:42:43.175Z,2.20
2022-12-06T04:45:10.312Z,2.20
2022-12-06T04:47:37.155Z,2.10
2022-12-06T04:50:04.334Z,2.10
2022-12-06T04:52:35.459Z,2.20
2022-12-06T04:55:03.135Z,2.30
2022-12-06T04:57:29.953Z,2.30
2022-12-06T04:59:56.699Z,2.40
2022-12-06T05:02:23.461Z,2.40
2022-12-06T05:04:50.242Z,2.40
2022-12-06T05:07:17.289Z,2.40
2022-12-06T05:09:44.047Z,2.40
2022-12-06T05:12:10.822Z,2.40
2022-12-06T05:14:37.660Z,2.40
2022-12-06T05:17:04.612Z,2.40
2022-12-06T05:19:31.637Z,2.40
2022-12-06T05:21:58.422Z,2.40
2022-12-06T05:24:25.327Z,2.50
2022-12-06T05:26:52.107Z,2.40
2022-12-06T05:29:19.907Z,2.40
2022-12-06T05:31:46.976Z,2.40
2022-12-06T05:34:13.834Z,2.40
2022-12-06T05:36:40.877Z,2.50
2022-12-06T05:39:07.701Z,2.50
2022-12-06T05:41:34.465Z,2.50
2022-12-06T05:44:01.216Z,2.50
2022-12-06T05:46:28.228Z,2.50
2022-12-06T05:48:55.133Z,2.60
2022-12-06T05:51:21.981Z,2.50
2022-12-06T05:53:48.716Z,2.60
2022-12-06T05:56:15.549Z,2.40
2022-12-06T05:58:42.327Z,2.40
2022-12-06T06:01:09.607Z,2.40
2022-12-06T06:03:38.989Z,2.40
2022-12-06T06:06:10.642Z,2.30
2022-12-06T06:08:37.408Z,2.20
2022-12-06T06:11:04.196Z,2.10
2022-12-06T06:13:31.143Z,1.90
2022-12-06T06:15:57.884Z,1.80
2022-12-06T06:18:24.912Z,1.80
2022-12-06T06:20:53.899Z,1.80
2022-12-06T06:23:21.614Z,1.70
2022-12-06T06:25:48.549Z,1.80
2022-12-06T06:28:16.813Z,1.90
2022-12-06T06:30:43.837Z,2.00
2022-12-06T06:33:11.065Z,2.00
2022-12-06T06:35:39.239Z,2.00
2022-12-06T06:38:06.491Z,1.90
2022-12-06T06:40:34.044Z,1.90
2022-12-06T06:43:18.279Z,2.00
2022-12-06T06:45:51.088Z,2.10
2022-12-06T06:48:20.918Z,2.10
2022-12-06T06:50:49.545Z,2.20
2022-12-06T06:53:19.834Z,2.10
2022-12-06T06:55:48.074Z,2.10
2022-12-06T06:58:15.135Z,2.20
2022-12-06T07:00:43.018Z,2.20
2022-12-06T07:03:16.437Z,2.20
2022-12-06T07:05:43.611Z,2.20
2022-12-06T07:08:11.296Z,2.30
2022-12-06T07:10:38.122Z,2.30
2022-12-06T07:13:04.890Z,2.40
2022-12-06T07:15:31.657Z,2.40
2022-12-06T07:17:58.410Z,2.40
2022-12-06T07:20:25.206Z,2.40
2022-12-06T07:22:52.075Z,2.40
2022-12-06T07:25:18.827Z,2.40
2022-12-06T07:27:46.047Z,2.40
2022-12-06T07:30:16.988Z,2.30
2022-12-06T07:32:44.715Z,2.40
2022-12-06T07:35:11.609Z,2.50
2022-12-06T07:37:38.467Z,2.60
2022-12-06T07:40:06.028Z,2.60
2022-12-06T07:42:51.293Z,2.70
2022-12-06T07:45:18.177Z,2.60
2022-12-06T07:47:45.053Z,2.40
2022-12-06T07:50:18.175Z,2.40
2022-12-06T07:52:50.691Z,2.50
2022-12-06T07:55:18.534Z,2.60
2022-12-06T07:57:45.466Z,2.60
2022-12-06T08:00:16.173Z,2.70
2022-12-06T08:02:45.274Z,2.80
2022-12-06T08:05:12.651Z,2.70
2022-12-06T08:08:00.558Z,2.70
2022-12-06T08:10:27.723Z,2.60
2022-12-06T08:12:54.503Z,2.80
2022-12-06T08:15:21.318Z,2.80
2022-12-06T08:17:48.145Z,2.80
2022-12-06T08:20:15.014Z,2.70
2022-12-06T08:22:41.875Z,2.80
2022-12-06T08:25:09.157Z,2.90
2022-12-06T08:27:35.932Z,2.90
2022-12-06T08:30:03.043Z,3.00
2022-12-06T08:32:30.167Z,3.00
2022-12-06T08:34:56.908Z,3.10
2022-12-06T08:37:23.702Z,3.20
2022-12-06T08:39:50.474Z,3.20
2022-12-06T08:42:22.049Z,3.20
2022-12-06T08:44:51.832Z,3.30
2022-12-06T08:47:18.678Z,3.30
2022-12-06T08:49:45.545Z,3.40
2022-12-06T08:52:12.416Z,3.50
2022-12-06T08:54:40.044Z,3.40
2022-12-06T08:57:06.823Z,3.40
2022-12-06T08:59:33.598Z,3.50
2022-12-06T09:02:00.489Z,3.40
2022-12-06T09:04:28.352Z,3.60
2022-12-06T09:06:55.386Z,3.60
2022-12-06T09:09:22.179Z,3.80
2022-12-06T09:11:50.038Z,3.80
2022-12-06T09:14:21.966Z,3.80
2022-12-06T09:16:50.507Z,3.90
2022-12-06T09:19:18.275Z,4.00
2022-12-06T09:21:46.482Z,4.00
2022-12-06T09:24:15.818Z,4.00
2022-12-06T09:26:42.958Z,4.00
2022-12-06T09:29:10.327Z,4.00
2022-12-06T09:31:39.704Z,3.90
2022-12-06T09:34:08.634Z,3.90
2022-12-06T09:36:39.674Z,3.80
2022-12-06T09:39:27.706Z,3.70
2022-12-06T09:42:38.456Z,3.80
2022-12-06T09:45:13.235Z,3.70
2022-12-06T09:47:54.785Z,3.70
2022-12-06T09:50:39.627Z,3.70
2022-12-06T09:53:57.325Z,3.70
2022-12-06T09:56:44.321Z,3.40
2022-12-06T09:59:25.978Z,3.40
2022-12-06T10:02:31.803Z,3.60
2022-12-06T10:05:36.230Z,3.90
2022-12-06T10:08:15.132Z,4.30
2022-12-06T10:11:01.614Z,4.40
2022-12-06T10:13:56.194Z,4.60
2022-12-06T10:16:38.057Z,4.60
2022-12-06T10:19:25.084Z,4.60
2022-12-06T10:22:24.211Z,4.60
2022-12-06T10:25:03.239Z,4.60
2022-12-06T10:27:44.145Z,4.50
2022-12-06T10:30:14.161Z,4.50
2022-12-06T10:33:35.287Z,4.60
2022-12-06T10:36:08.722Z,4.60
2022-12-06T10:39:00.628Z,4.80
2022-12-06T10:41:56.678Z,4.70
2022-12-06T10:44:35.545Z,4.50
2022-12-06T10:47:14.639Z,4.50
2022-12-06T10:50:04.863Z,4.50
2022-12-06T10:52:57.289Z,4.60
2022-12-06T10:55:52.075Z,4.80
2022-12-06T10:58:55.314Z,5.00
2022-12-06T11:01:28.726Z,5.20
2022-12-06T11:04:33.412Z,5.40
2022-12-06T11:07:12.760Z,5.50
2022-12-06T11:09:43.057Z,5.80
2022-12-06T11:12:25.207Z,5.70
2022-12-06T11:15:13.324Z,5.70
2022-12-06T11:17:48.476Z,6.00
2022-12-06T11:20:29.163Z,5.80
2022-12-06T11:23:32.082Z,5.80
2022-12-06T11:26:23.459Z,5.90
2022-12-06T11:29:06.135Z,5.90
2022-12-06T11:31:45.671Z,5.80
2022-12-06T11:34:42.170Z,5.50
2022-12-06T11:37:21.377Z,5.80
2022-12-06T11:39:51.471Z,5.50
2022-12-06T11:42:25.042Z,5.10
2022-12-06T11:45:28.307Z,4.80
2022-12-06T11:48:01.990Z,4.90
2022-12-06T11:50:33.382Z,4.70
2022-12-06T11:53:05.063Z,4.80
2022-12-06T11:55:42.077Z,4.70
2022-12-06T11:58:11.623Z,4.80
2022-12-06T12:00:59.530Z,4.90
2022-12-06T12:03:34.936Z,4.90
2022-12-06T12:06:20.049Z,4.60
2022-12-06T12:09:05.041Z,4.60
2022-12-06T12:11:40.127Z,4.50
2022-12-06T12:14:23.915Z,4.40
2022-12-06T12:17:01.307Z,4.50
2022-12-06T12:20:02.242Z,4.60
2022-12-06T12:22:37.811Z,4.50
2022-12-06T12:25:23.384Z,4.40
2022-12-06T12:27:52.969Z,4.10
2022-12-06T12:30:28.871Z,4.00
2022-12-06T12:33:07.927Z,4.30
2022-12-06T12:35:40.703Z,4.50
2022-12-06T12:38:10.450Z,4.70
2022-12-06T12:40:39.297Z,5.00
2022-12-06T12:43:10.803Z,5.30
2022-12-06T12:46:02.886Z,5.60
2022-12-06T12:48:30.201Z,5.60
2022-12-06T12:51:03.384Z,5.60
2022-12-06T12:53:41.572Z,5.60
2022-12-06T12:56:10.242Z,5.40
2022-12-06T12:58:41.376Z,5.30
2022-12-06T13:01:25.727Z,5.40
2022-12-06T13:03:57.438Z,5.50
2022-12-06T13:06:50.619Z,5.30
2022-12-06T13:09:31.260Z,5.00
2022-12-06T13:12:04.798Z,4.80
2022-12-06T13:14:34.335Z,4.80
2022-12-06T13:17:06.912Z,4.80
2022-12-06T13:19:39.040Z,4.70
2022-12-06T13:22:10.613Z,4.50
2022-12-06T13:24:39.298Z,4.40
2022-12-06T13:27:12.458Z,4.30
2022-12-06T13:29:44.051Z,4.30
2022-12-06T13:32:20.268Z,4.40
2022-12-06T13:34:55.460Z,4.40
2022-12-06T13:37:30.420Z,4.10
2022-12-06T13:39:57.681Z,4.10
2022-12-06T13:42:43.128Z,4.00
2022-12-06T13:45:42.344Z,4.00
2022-12-06T13:48:24.467Z,4.00
2022-12-06T13:51:02.240Z,4.10
2022-12-06T13:53:33.889Z,4.10
2022-12-06T13:56:30.746Z,4.00
2022-12-06T13:58:59.669Z,4.10
2022-12-06T14:01:40.313Z,3.90
2022-12-06T14:09:40.934Z,3.90
2022-12-06T14:12:19.812Z,3.80
2022-12-06T14:14:57.071Z,3.80
2022-12-06T14:18:00.021Z,3.80
2022-12-06T14:20:27.698Z,3.70
2022-12-06T14:22:54.749Z,3.70
2022-12-06T14:25:25.447Z,3.70
2022-12-06T14:28:06.143Z,3.60
2022-12-06T14:30:33.625Z,3.50
2022-12-06T14:33:00.599Z,3.40
2022-12-06T14:35:29.586Z,3.40
2022-12-06T14:38:00.092Z,3.50
2022-12-06T14:40:58.116Z,3.60
2022-12-06T14:43:28.295Z,3.40
2022-12-06T14:45:57.224Z,3.30
2022-12-06T14:48:24.912Z,3.00
2022-12-06T14:51:01.264Z,3.00
2022-12-06T14:53:36.485Z,2.90
2022-12-06T14:56:20.422Z,2.90
2022-12-06T14:58:48.775Z,2.80
2022-12-06T15:01:19.602Z,3.00
2022-12-06T15:04:06.942Z,2.90
2022-12-06T15:06:35.680Z,2.90
2022-12-06T15:09:02.786Z,2.90
2022-12-06T15:12:07.807Z,3.00
2022-12-06T15:14:40.653Z,3.00
2022-12-06T15:17:10.227Z,3.10
2022-12-06T15:19:53.671Z,3.20
2022-12-06T15:22:27.683Z,3.10
2022-12-06T15:24:57.432Z,3.10
2022-12-06T15:27:26.806Z,3.10
2022-12-06T15:29:53.898Z,3.10
2022-12-06T15:32:23.815Z,3.20
2022-12-06T15:34:53.785Z,3.10
2022-12-06T15:37:39.374Z,2.80
2022-12-06T15:40:07.848Z,2.70
2022-12-06T15:42:34.649Z,2.60
2022-12-06T15:45:01.566Z,2.40
2022-12-06T15:47:28.456Z,2.30
2022-12-06T15:49:58.140Z,2.40
2022-12-06T15:52:26.164Z,2.30
2022-12-06T15:54:52.999Z,2.30
2022-12-06T15:57:19.853Z,2.40
2022-12-06T15:59:46.636Z,2.30
2022-12-06T16:02:18.389Z,2.30
2022-12-06T16:04:48.351Z,2.30
2022-12-06T16:07:18.824Z,2.30
2022-12-06T16:09:46.392Z,2.20
2022-12-06T16:12:13.199Z,2.20
2022-12-06T16:14:39.969Z,2.30
2022-12-06T16:17:06.757Z,2.30
2022-12-06T16:19:52.218Z,2.20
2022-12-06T16:22:38.995Z,2.20
2022-12-06T16:25:06.149Z,2.30
2022-12-06T16:27:33.132Z,2.30
2022-12-06T16:29:59.894Z,2.30
2022-12-06T16:32:26.665Z,2.30
2022-12-06T16:34:55.132Z,2.30
2022-12-06T16:37:22.024Z,2.20
2022-12-06T16:39:48.851Z,2.20
2022-12-06T16:42:15.763Z,2.20
2022-12-06T16:44:58.095Z,2.10
2022-12-06T16:49:50.860Z,2.30
2022-12-06T16:52:18.106Z,2.30
2022-12-06T16:54:46.725Z,2.30
2022-12-06T16:57:14.679Z,2.20
2022-12-06T16:59:44.748Z,2.20
2022-12-06T17:02:33.736Z,2.40
2022-12-06T17:05:06.270Z,2.50
2022-12-06T17:07:34.654Z,2.60
2022-12-06T17:10:01.891Z,2.60
2022-12-06T17:12:28.756Z,2.50
2022-12-06T17:14:55.598Z,2.40
2022-12-06T17:17:22.941Z,2.50
2022-12-06T17:19:50.704Z,2.40
2022-12-06T17:22:18.724Z,2.30
2022-12-06T17:24:45.752Z,2.40
2022-12-06T17:27:14.896Z,2.40
2022-12-06T17:29:42.553Z,2.40
2022-12-06T17:32:09.470Z,2.30
2022-12-06T17:34:36.457Z,2.30
2022-12-06T17:37:03.348Z,2.40
2022-12-06T17:39:30.132Z,2.50
2022-12-06T17:42:15.411Z,2.30
2022-12-06T17:44:42.195Z,2.30
2022-12-06T17:47:09.106Z,2.50
2022-12-06T17:49:37.071Z,2.50
2022-12-06T17:52:04.350Z,2.60
2022-12-06T17:54:31.259Z,2.60
2022-12-06T17:56:58.064Z,2.70
2022-12-06T17:59:30.472Z,2.40
2022-12-06T18:02:17.898Z,2.30
2022-12-06T18:04:46.496Z,2.20
2022-12-06T18:07:14.108Z,2.20
2022-12-06T18:09:41.127Z,2.30
2022-12-06T18:12:09.878Z,2.30
2022-12-06T18:14:36.738Z,2.20
2022-12-06T18:17:03.842Z,2.30
2022-12-06T18:19:30.809Z,2.30
2022-12-06T18:21:57.599Z,2.30
2022-12-06T18:24:27.904Z,2.40
2022-12-06T18:26:58.654Z,2.30
2022-12-06T18:29:25.485Z,2.20
2022-12-06T18:31:52.871Z,2.20
2022-12-06T18:34:20.198Z,2.20
2022-12-06T18:36:47.551Z,2.30
2022-12-06T18:39:16.597Z,2.30
2022-12-06T18:41:44.719Z,2.40
2022-12-06T18:44:13.188Z,2.50
2022-12-06T18:46:42.262Z,2.40
2022-12-06T18:49:11.194Z,2.20
2022-12-06T18:51:41.252Z,2.20
2022-12-06T18:54:09.181Z,2.30
2022-12-06T18:56:36.604Z,2.20
2022-12-06T18:59:07.130Z,2.00
2022-12-06T19:01:36.349Z,2.10
2022-12-06T19:04:05.142Z,2.10
2022-12-06T19:06:34.884Z,2.00
2022-12-06T19:09:05.192Z,2.00
2022-12-06T19:11:32.353Z,1.90
2022-12-06T19:14:00.592Z,2.00
2022-12-06T19:16:39.393Z,2.00
2022-12-06T19:19:15.451Z,1.90
2022-12-06T19:21:43.951Z,1.80
2022-12-06T19:24:13.027Z,1.80
2022-12-06T19:26:40.259Z,1.70
2022-12-06T19:29:07.150Z,1.80
2022-12-06T19:31:34.043Z,1.80
2022-12-06T19:34:01.168Z,2.00
2022-12-06T19:36:30.228Z,2.00
2022-12-06T19:39:01.505Z,1.80
2022-12-06T19:41:28.845Z,1.80
2022-12-06T19:44:14.123Z,1.90
2022-12-06T19:46:43.547Z,2.10
2022-12-06T19:49:11.712Z,2.20
2022-12-06T19:52:00.571Z,2.30
2022-12-06T19:54:30.135Z,2.30
2022-12-06T19:56:58.608Z,2.20
2022-12-06T19:59:27.565Z,2.20
2022-12-06T20:01:54.997Z,2.20
2022-12-06T20:04:29.924Z,2.00
2022-12-06T20:06:57.316Z,1.90
2022-12-06T20:09:27.403Z,2.10
2022-12-06T20:12:01.457Z,2.00
2022-12-06T20:14:47.781Z,2.00
2022-12-06T20:17:17.004Z,1.80
2022-12-06T20:19:51.912Z,1.80
2022-12-06T20:22:22.098Z,1.70
2022-12-06T20:24:48.980Z,1.70
2022-12-06T20:27:15.773Z,1.70
2022-12-06T20:29:42.733Z,1.70
2022-12-06T20:32:10.490Z,1.60
2022-12-06T20:34:37.923Z,1.60
2022-12-06T20:37:06.135Z,1.60
2022-12-06T20:39:35.662Z,1.60
2022-12-06T20:42:03.433Z,1.60
2022-12-06T20:44:30.922Z,1.70
2022-12-06T20:46:57.963Z,1.60
2022-12-06T20:49:25.004Z,1.60
2022-12-06T20:51:53.678Z,1.80
2022-12-06T20:54:21.969Z,1.80
2022-12-06T20:56:52.050Z,1.70
2022-12-06T20:59:19.255Z,1.80
2022-12-06T21:01:46.215Z,1.80
2022-12-06T21:04:14.406Z,1.70
2022-12-06T21:06:41.523Z,1.80
2022-12-06T21:09:08.409Z,2.00
2022-12-06T21:11:35.612Z,2.00
2022-12-06T21:14:03.718Z,2.00
2022-12-06T21:16:32.521Z,1.80
2022-12-06T21:19:01.837Z,2.00
2022-12-06T21:21:31.194Z,2.00
2022-12-06T21:24:02.829Z,1.90
2022-12-06T21:26:30.418Z,1.90
2022-12-06T21:28:57.631Z,1.90
2022-12-06T21:31:40.973Z,1.80
2022-12-06T21:34:08.134Z,1.80
2022-12-06T21:36:34.954Z,1.90
2022-12-06T21:39:01.809Z,2.00
2022-12-06T21:41:28.573Z,2.00
2022-12-06T21:43:55.702Z,2.00
2022-12-06T21:46:24.705Z,2.10
2022-12-06T21:48:53.616Z,2.00
2022-12-06T21:51:20.510Z,2.10
2022-12-06T21:53:47.984Z,2.20
2022-12-06T21:56:28.426Z,2.20
2022-12-06T21:58:55.965Z,2.20
2022-12-06T22:01:25.383Z,2.30
2022-12-06T22:03:54.336Z,2.30
2022-12-06T22:06:21.976Z,2.20
2022-12-06T22:08:55.337Z,2.10
2022-12-06T22:11:22.124Z,2.20
2022-12-06T22:13:48.936Z,2.20
2022-12-06T22:16:16.952Z,2.20
2022-12-06T22:18:46.218Z,2.20
2022-12-06T22:21:19.699Z,2.10
2022-12-06T22:23:47.393Z,2.00
2022-12-06T22:26:16.797Z,2.00
2022-12-06T22:28:44.337Z,2.10
2022-12-06T22:31:17.645Z,2.10
2022-12-06T22:33:45.208Z,2.10
2022-12-06T22:36:13.499Z,2.20
2022-12-06T22:38:40.815Z,2.10
2022-12-06T22:41:08.892Z,2.20
2022-12-06T22:43:37.123Z,2.20
2022-12-06T22:46:06.986Z,2.20
2022-12-06T22:48:33.807Z,2.20
2022-12-06T22:51:18.013Z,2.20
2022-12-06T22:53:46.861Z,2.20
2022-12-06T22:56:14.904Z,1.90
2022-12-06T22:58:41.816Z,1.80
2022-12-06T23:01:17.621Z,1.90
2022-12-06T23:03:46.376Z,2.00
2022-12-06T23:06:14.985Z,2.00
2022-12-06T23:08:42.567Z,1.80
2022-12-06T23:11:11.248Z,1.80
2022-12-06T23:13:38.527Z,2.00
2022-12-06T23:16:07.888Z,1.80
2022-12-06T23:18:35.018Z,1.90
2022-12-06T23:21:09.114Z,1.80
2022-12-06T23:23:36.163Z,1.70
2022-12-06T23:26:08.042Z,1.80
2022-12-06T23:28:35.554Z,2.00
2022-12-06T23:31:11.581Z,2.00
2022-12-06T23:33:38.626Z,1.90
2022-12-06T23:36:12.673Z,2.00
2022-12-06T23:38:40.548Z,1.70
2022-12-06T23:41:13.216Z,1.70
2022-12-06T23:43:41.344Z,1.60
2022-12-06T23:46:10.792Z,1.50
2022-12-06T23:48:38.214Z,1.50
2022-12-06T23:51:11.310Z,1.50
2022-12-06T23:53:38.903Z,1.50
2022-12-06T23:56:10.035Z,1.50
2022-12-06T23:58:37.549Z,1.50
